Irish Sea — WDB5555 — position and weather

sailwx.info

Track history (hours):
 
Tides and Currents Weather Stations Pressure Air Temp Water Temp Dewpoint Dewpoint Depression Visibility Wind Speed Wind Dir Waves Ship Positions

Irish Sea

Owner: Kirby Offshore Marine, LLC, Staten Island, NY. More information available from US FCC via Universal Licensing System and Coast Guard Vessel Documentation Center.

Last reported at 2015-May-22 18:28 UTC. Time now 2015-May-23 16:31 UTC.
Position N 39°00' W 075°09'.

Length 156 m; draft 6.8 m.

Type: Ship (hazmat cat B). MMSI: 366910920.

Date/timePositionNaut miles runAvg speedWind from/ knotsBaromVisibWave heightAir tempDewpointWater temp
2015-May-22 18:28N 39°00' W 075°09'8 9.2
2015-May-22 17:33N 38°53' W 075°04'8 8.0
2015-May-22 16:33N 38°49' W 074°55'56 9.4
2015-May-22 10:33N 39°31' W 074°07'9 9.4
2015-May-22 09:33N 39°40' W 074°02'9 9.3
2015-May-22 08:33N 39°48' W 073°57'45 9.0
2015-May-22 03:33N 40°33' W 074°02'7 6.6
2015-May-22 02:34N 40°39' W 074°04'0 0.1
2015-May-21 23:22N 40°40' W 074°04'0 0.0
2015-May-21 22:28N 40°40' W 074°04'1 0.7
2015-May-21 21:32N 40°39' W 074°05'4 3.8
2015-May-21 20:29N 40°38' W 074°10'0 0.0
2015-May-21 19:29N 40°38' W 074°10'0 0.0
2015-May-21 18:17N 40°38' W 074°10'0 0.0
2015-May-21 17:29N 40°38' W 074°10'0 0.0
2015-May-21 16:23N 40°38' W 074°10'2 2.6
2015-May-21 15:33N 40°40' W 074°08'  
2015-May-18 13:32N 40°39' W 074°10'0 0.0
2015-May-18 12:31N 40°39' W 074°10'0 0.0
2015-May-18 11:31N 40°39' W 074°10'0 0.0
2015-May-18 10:31N 40°39' W 074°10'0 0.0
2015-May-18 09:31N 40°39' W 074°10'0 0.0
2015-May-18 07:25N 40°39' W 074°10'0 0.0
2015-May-18 06:25N 40°39' W 074°10'0 0.0
2015-May-18 04:13N 40°39' W 074°10'0 0.0
2015-May-17 23:07N 40°39' W 074°10'0 0.0
2015-May-17 21:19N 40°39' W 074°10'0 0.0
2015-May-17 20:19N 40°39' W 074°10'0 0.0
2015-May-17 19:07N 40°39' W 074°10'0 0.0
2015-May-17 18:31N 40°39' W 074°10'0 0.0
2015-May-17 17:31N 40°39' W 074°10'0 0.0
2015-May-17 16:31N 40°39' W 074°10'0 0.0
2015-May-17 15:31N 40°39' W 074°10'0 0.0
2015-May-17 12:31N 40°39' W 074°10'0 0.0
2015-May-17 11:31N 40°39' W 074°10'0 0.0
2015-May-17 08:31N 40°39' W 074°10'0 0.0
2015-May-17 07:25N 40°39' W 074°10'0 0.0
2015-May-17 04:25N 40°39' W 074°10'0 0.0
2015-May-16 22:24N 40°39' W 074°10'0 0.0
2015-May-16 21:12N 40°39' W 074°10'0 0.0
2015-May-16 20:30N 40°39' W 074°10'0 0.0
2015-May-16 19:30N 40°39' W 074°10'0 0.0
2015-May-16 17:24N 40°39' W 074°10'0 0.0
2015-May-16 16:30N 40°39' W 074°10'0 0.0
2015-May-16 14:30N 40°39' W 074°10'0 0.0
2015-May-16 11:30N 40°39' W 074°10'0 0.0
2015-May-16 10:30N 40°39' W 074°10'0 0.0
2015-May-16 09:30N 40°39' W 074°10'0 0.0
2015-May-16 08:24N 40°39' W 074°10'0 0.0
2015-May-16 07:30N 40°39' W 074°10'0 0.0
2015-May-16 06:12N 40°39' W 074°10'0 0.0
2015-May-16 05:30N 40°39' W 074°10'0 0.0
2015-May-16 03:18N 40°39' W 074°10'0 0.0
2015-May-16 02:24N 40°39' W 074°10'0 0.0
2015-May-16 01:12N 40°39' W 074°10'0 0.0
2015-May-16 00:15N 40°39' W 074°10'0 0.0
2015-May-15 23:09N 40°39' W 074°10'0 0.0
2015-May-15 22:15N 40°39' W 074°10'0 0.0
2015-May-15 21:27N 40°39' W 074°10'0 0.0
2015-May-15 20:21N 40°39' W 074°10'0 0.0
2015-May-15 19:06N 40°39' W 074°10'0 0.0
2015-May-15 18:12N 40°39' W 074°10'0 0.0
2015-May-15 17:17N 40°39' W 074°10'0 0.0
2015-May-15 16:29N 40°39' W 074°10'0 0.0
2015-May-15 15:32N 40°39' W 074°10'0 0.0
2015-May-15 14:33N 40°39' W 074°10'5 4.6
2015-May-15 13:33N 40°40' W 074°04'0 0.1
2015-May-15 12:33N 40°40' W 074°04'1 0.9
2015-May-15 11:33N 40°40' W 074°03'1 0.9
2015-May-15 10:33N 40°40' W 074°02'4 4.0
2015-May-15 09:33N 40°36' W 074°02'9 8.2
2015-May-15 08:26N 40°29' W 073°55'16 7.7
2015-May-15 06:23N 40°13' W 073°55'22 7.7
2015-May-15 03:29N 39°51' W 073°56'5 5.8
2015-May-15 02:33N 39°46' W 073°58'7 7.4
2015-May-15 01:32N 39°39' W 074°02'7 7.4
2015-May-15 00:33N 39°32' W 074°06'8 7.6
2015-May-14 23:33N 39°26' W 074°11'50 7.1
2015-May-14 16:32N 38°49' W 074°54'7 6.9
2015-May-14 15:33N 38°50' W 075°03'9 8.9
2015-May-14 14:33N 38°58' W 075°07'10 8.7
2015-May-14 13:26N 39°07' W 075°13'7 7.7
2015-May-14 12:33N 39°13' W 075°18'6 6.5
2015-May-14 11:33N 39°18' W 075°23'5 5.4
2015-May-14 10:33N 39°22' W 075°27'5 5.3
2015-May-14 09:33N 39°26' W 075°32'6 5.8
2015-May-14 08:34N 39°32' W 075°33'4 3.9
2015-May-14 07:32N 39°35' W 075°35'0 0.0
2015-May-14 06:32N 39°35' W 075°35'0 0.0
2015-May-14 05:26N 39°35' W 075°35'0 0.0
2015-May-14 04:32N 39°35' W 075°35'0 0.0
2015-May-14 03:32N 39°35' W 075°35'0 0.0
2015-May-14 02:32N 39°35' W 075°35'0 0.0
2015-May-14 01:31N 39°35' W 075°35'0 0.0
2015-May-14 00:31N 39°35' W 075°35'0 0.0
2015-May-13 23:31N 39°35' W 075°35'0 0.0
2015-May-13 22:31N 39°35' W 075°35'0 0.0
2015-May-13 21:31N 39°35' W 075°35'0 0.0
2015-May-13 20:31N 39°35' W 075°35'0 0.0
2015-May-13 19:28N 39°35' W 075°35'0 0.0
2015-May-13 18:31N 39°35' W 075°35'0 0.0
2015-May-13 17:31N 39°35' W 075°35'0 0.0
2015-May-13 16:31N 39°35' W 075°35'0 0.0
2015-May-13 15:31N 39°35' W 075°35'0 0.0
2015-May-13 14:31N 39°35' W 075°35'0 0.0
2015-May-13 13:31N 39°35' W 075°35'0 0.0
2015-May-13 12:31N 39°35' W 075°35'0 0.0
2015-May-13 11:31N 39°35' W 075°35'0 0.0
2015-May-13 10:28N 39°35' W 075°35'0 0.0
2015-May-13 09:31N 39°35' W 075°35'0 0.0
2015-May-13 08:31N 39°35' W 075°35'0 0.0
2015-May-13 07:31N 39°35' W 075°35'0 0.0
2015-May-13 06:31N 39°35' W 075°35'0 0.0
2015-May-13 05:31N 39°35' W 075°35'0 0.0
2015-May-13 04:31N 39°35' W 075°35'0 0.0
2015-May-13 03:31N 39°35' W 075°35'0 0.0
2015-May-13 02:31N 39°35' W 075°35'0 0.0
2015-May-13 01:31N 39°35' W 075°35'0 0.0
2015-May-13 00:33N 39°35' W 075°35'3 2.8
2015-May-12 23:33N 39°33' W 075°33'0 0.0
2015-May-12 22:31N 39°33' W 075°33'0 0.0
2015-May-12 21:33N 39°33' W 075°33'0 0.0
2015-May-12 20:33N 39°33' W 075°33'0 0.0
2015-May-12 19:33N 39°33' W 075°33'0 0.1
2015-May-12 18:33N 39°33' W 075°33'  
Track history (hours):
 
Tides and Currents Weather Stations Pressure Air Temp Water Temp Dewpoint Dewpoint Depression Visibility Wind Speed Wind Dir Waves Ship Positions

Irish Sea

Owner: Kirby Offshore Marine, LLC, Staten Island, NY. More information available from US FCC via Universal Licensing System and Coast Guard Vessel Documentation Center.

Last reported at 2015-May-22 18:28 UTC. Time now 2015-May-23 16:31 UTC.
Position N 39°00' W 075°09'.

Length 156 m; draft 6.8 m.

Type: Ship (hazmat cat B). MMSI: 366910920.

Date/timePositionNaut miles runAvg speedWind from/ knotsBaromVisibWave heightAir tempDewpointWater temp
2015-May-22 18:28N 39°00' W 075°09'8 9.2
2015-May-22 17:33N 38°53' W 075°04'8 8.0
2015-May-22 16:33N 38°49' W 074°55'56 9.4
2015-May-22 10:33N 39°31' W 074°07'9 9.4
2015-May-22 09:33N 39°40' W 074°02'9 9.3
2015-May-22 08:33N 39°48' W 073°57'45 9.0
2015-May-22 03:33N 40°33' W 074°02'7 6.6
2015-May-22 02:34N 40°39' W 074°04'0 0.1
2015-May-21 23:22N 40°40' W 074°04'0 0.0
2015-May-21 22:28N 40°40' W 074°04'1 0.7
2015-May-21 21:32N 40°39' W 074°05'4 3.8
2015-May-21 20:29N 40°38' W 074°10'0 0.0
2015-May-21 19:29N 40°38' W 074°10'0 0.0
2015-May-21 18:17N 40°38' W 074°10'0 0.0
2015-May-21 17:29N 40°38' W 074°10'0 0.0
2015-May-21 16:23N 40°38' W 074°10'2 2.6
2015-May-21 15:33N 40°40' W 074°08'  
2015-May-18 13:32N 40°39' W 074°10'0 0.0
2015-May-18 12:31N 40°39' W 074°10'0 0.0
2015-May-18 11:31N 40°39' W 074°10'0 0.0
2015-May-18 10:31N 40°39' W 074°10'0 0.0
2015-May-18 09:31N 40°39' W 074°10'0 0.0
2015-May-18 07:25N 40°39' W 074°10'0 0.0
2015-May-18 06:25N 40°39' W 074°10'0 0.0
2015-May-18 04:13N 40°39' W 074°10'0 0.0
2015-May-17 23:07N 40°39' W 074°10'0 0.0
2015-May-17 21:19N 40°39' W 074°10'0 0.0
2015-May-17 20:19N 40°39' W 074°10'0 0.0
2015-May-17 19:07N 40°39' W 074°10'0 0.0
2015-May-17 18:31N 40°39' W 074°10'0 0.0
2015-May-17 17:31N 40°39' W 074°10'0 0.0
2015-May-17 16:31N 40°39' W 074°10'0 0.0
2015-May-17 15:31N 40°39' W 074°10'0 0.0
2015-May-17 12:31N 40°39' W 074°10'0 0.0
2015-May-17 11:31N 40°39' W 074°10'0 0.0
2015-May-17 08:31N 40°39' W 074°10'0 0.0
2015-May-17 07:25N 40°39' W 074°10'0 0.0
2015-May-17 04:25N 40°39' W 074°10'0 0.0
2015-May-16 22:24N 40°39' W 074°10'0 0.0
2015-May-16 21:12N 40°39' W 074°10'0 0.0
2015-May-16 20:30N 40°39' W 074°10'0 0.0
2015-May-16 19:30N 40°39' W 074°10'0 0.0
2015-May-16 17:24N 40°39' W 074°10'0 0.0
2015-May-16 16:30N 40°39' W 074°10'0 0.0
2015-May-16 14:30N 40°39' W 074°10'0 0.0
2015-May-16 11:30N 40°39' W 074°10'0 0.0
2015-May-16 10:30N 40°39' W 074°10'0 0.0
2015-May-16 09:30N 40°39' W 074°10'0 0.0
2015-May-16 08:24N 40°39' W 074°10'0 0.0
2015-May-16 07:30N 40°39' W 074°10'0 0.0
2015-May-16 06:12N 40°39' W 074°10'0 0.0
2015-May-16 05:30N 40°39' W 074°10'0 0.0
2015-May-16 03:18N 40°39' W 074°10'0 0.0
2015-May-16 02:24N 40°39' W 074°10'0 0.0
2015-May-16 01:12N 40°39' W 074°10'0 0.0
2015-May-16 00:15N 40°39' W 074°10'0 0.0
2015-May-15 23:09N 40°39' W 074°10'0 0.0
2015-May-15 22:15N 40°39' W 074°10'0 0.0
2015-May-15 21:27N 40°39' W 074°10'0 0.0
2015-May-15 20:21N 40°39' W 074°10'0 0.0
2015-May-15 19:06N 40°39' W 074°10'0 0.0
2015-May-15 18:12N 40°39' W 074°10'0 0.0
2015-May-15 17:17N 40°39' W 074°10'0 0.0
2015-May-15 16:29N 40°39' W 074°10'0 0.0
2015-May-15 15:32N 40°39' W 074°10'0 0.0
2015-May-15 14:33N 40°39' W 074°10'5 4.6
2015-May-15 13:33N 40°40' W 074°04'0 0.1
2015-May-15 12:33N 40°40' W 074°04'1 0.9
2015-May-15 11:33N 40°40' W 074°03'1 0.9
2015-May-15 10:33N 40°40' W 074°02'4 4.0
2015-May-15 09:33N 40°36' W 074°02'9 8.2
2015-May-15 08:26N 40°29' W 073°55'16 7.7
2015-May-15 06:23N 40°13' W 073°55'22 7.7
2015-May-15 03:29N 39°51' W 073°56'5 5.8
2015-May-15 02:33N 39°46' W 073°58'7 7.4
2015-May-15 01:32N 39°39' W 074°02'7 7.4
2015-May-15 00:33N 39°32' W 074°06'8 7.6
2015-May-14 23:33N 39°26' W 074°11'50 7.1
2015-May-14 16:32N 38°49' W 074°54'7 6.9
2015-May-14 15:33N 38°50' W 075°03'9 8.9
2015-May-14 14:33N 38°58' W 075°07'10 8.7
2015-May-14 13:26N 39°07' W 075°13'7 7.7
2015-May-14 12:33N 39°13' W 075°18'6 6.5
2015-May-14 11:33N 39°18' W 075°23'5 5.4
2015-May-14 10:33N 39°22' W 075°27'5 5.3
2015-May-14 09:33N 39°26' W 075°32'6 5.8
2015-May-14 08:34N 39°32' W 075°33'4 3.9
2015-May-14 07:32N 39°35' W 075°35'0 0.0
2015-May-14 06:32N 39°35' W 075°35'0 0.0
2015-May-14 05:26N 39°35' W 075°35'0 0.0
2015-May-14 04:32N 39°35' W 075°35'0 0.0
2015-May-14 03:32N 39°35' W 075°35'0 0.0
2015-May-14 02:32N 39°35' W 075°35'0 0.0
2015-May-14 01:31N 39°35' W 075°35'0 0.0
2015-May-14 00:31N 39°35' W 075°35'0 0.0
2015-May-13 23:31N 39°35' W 075°35'0 0.0
2015-May-13 22:31N 39°35' W 075°35'0 0.0
2015-May-13 21:31N 39°35' W 075°35'0 0.0
2015-May-13 20:31N 39°35' W 075°35'0 0.0
2015-May-13 19:28N 39°35' W 075°35'0 0.0
2015-May-13 18:31N 39°35' W 075°35'0 0.0
2015-May-13 17:31N 39°35' W 075°35'0 0.0
2015-May-13 16:31N 39°35' W 075°35'0 0.0
2015-May-13 15:31N 39°35' W 075°35'0 0.0
2015-May-13 14:31N 39°35' W 075°35'0 0.0
2015-May-13 13:31N 39°35' W 075°35'0 0.0
2015-May-13 12:31N 39°35' W 075°35'0 0.0
2015-May-13 11:31N 39°35' W 075°35'0 0.0
2015-May-13 10:28N 39°35' W 075°35'0 0.0
2015-May-13 09:31N 39°35' W 075°35'0 0.0
2015-May-13 08:31N 39°35' W 075°35'0 0.0
2015-May-13 07:31N 39°35' W 075°35'0 0.0
2015-May-13 06:31N 39°35' W 075°35'0 0.0
2015-May-13 05:31N 39°35' W 075°35'0 0.0
2015-May-13 04:31N 39°35' W 075°35'0 0.0
2015-May-13 03:31N 39°35' W 075°35'0 0.0
2015-May-13 02:31N 39°35' W 075°35'0 0.0
2015-May-13 01:31N 39°35' W 075°35'0 0.0
2015-May-13 00:33N 39°35' W 075°35'3 2.8
2015-May-12 23:33N 39°33' W 075°33'0 0.0
2015-May-12 22:31N 39°33' W 075°33'0 0.0
2015-May-12 21:33N 39°33' W 075°33'0 0.0
2015-May-12 20:33N 39°33' W 075°33'0 0.0
2015-May-12 19:33N 39°33' W 075°33'0 0.1
2015-May-12 18:33N 39°33' W 075°33'  

Dump ship's entire track history